Time;durP1;ratioP1;P1;durP2;ratioP2;P2;SDS_P1;SDS_P2;PMS_P1;PMS_P2;Temp;Humidity;BMP_temperature;BMP_pressure;BME280_temperature;BME280_humidity;BME280_pressure;Samples;Min_cycle;Max_cycle;Signal;HPM_P1;HPM_P2
2023/04/14 00:01:55;;;;;;;5.13;1.58;;;19.30;39.80;;;;;;5095207;28;20249;-75
2023/04/14 00:04:22;;;;;;;6.38;1.73;;;19.30;40.60;;;;;;5093964;28;20217;-75
2023/04/14 00:06:51;;;;;;;5.72;1.35;;;19.30;39.80;;;;;;5093291;28;20249;-74
2023/04/14 00:09:20;;;;;;;4.80;1.55;;;19.30;39.80;;;;;;5094966;28;20232;-75
2023/04/14 00:11:49;;;;;;;6.07;1.67;;;19.30;39.90;;;;;;5091526;28;20249;-74
2023/04/14 00:14:16;;;;;;;5.70;1.77;;;19.30;39.90;;;;;;5074659;28;20183;-75
2023/04/14 00:16:45;;;;;;;6.35;1.45;;;19.20;39.80;;;;;;5074424;28;20711;-75
2023/04/14 00:19:12;;;;;;;2.72;1.33;;;19.20;39.90;;;;;;5074618;28;20557;-75
2023/04/14 00:21:39;;;;;;;4.82;1.48;;;19.30;40.00;;;;;;5074150;28;20250;-75
2023/04/14 00:24:06;;;;;;;4.43;1.48;;;19.20;39.90;;;;;;5074463;28;20230;-75
2023/04/14 00:26:34;;;;;;;3.33;1.55;;;19.20;39.90;;;;;;5074114;28;20273;-74
2023/04/14 00:29:01;;;;;;;3.92;1.75;;;19.20;40.00;;;;;;5074568;28;20230;-75
2023/04/14 00:31:28;;;;;;;4.00;1.45;;;19.20;40.00;;;;;;5074042;28;20211;-75
2023/04/14 00:33:55;;;;;;;3.95;1.40;;;19.20;40.00;;;;;;5073247;28;20211;-74
2023/04/14 00:36:23;;;;;;;2.97;1.27;;;19.20;40.00;;;;;;5074227;28;20258;-74
2023/04/14 00:38:50;;;;;;;4.75;1.67;;;19.20;40.00;;;;;;5074109;28;20218;-75
2023/04/14 00:41:16;;;;;;;6.13;1.73;;;19.20;40.10;;;;;;5074223;28;20253;-75
2023/04/14 00:43:46;;;;;;;4.43;1.52;;;19.20;40.10;;;;;;5074114;28;20225;-75
2023/04/14 00:46:15;;;;;;;4.63;1.50;;;19.20;40.10;;;;;;5074069;28;20250;-75
2023/04/14 00:48:43;;;;;;;4.07;1.27;;;19.20;40.10;;;;;;5074006;28;20268;-75
2023/04/14 00:51:10;;;;;;;2.97;1.50;;;19.20;40.20;;;;;;5072524;28;20253;-74
2023/04/14 00:53:38;;;;;;;6.15;1.65;;;19.10;40.10;;;;;;5073758;28;20198;-75
2023/04/14 00:56:07;;;;;;;4.20;1.50;;;19.20;40.20;;;;;;5073572;28;20264;-75
2023/04/14 00:58:34;;;;;;;4.85;1.63;;;19.10;40.10;;;;;;5073484;28;20668;-74
2023/04/14 01:01:03;;;;;;;4.63;1.40;;;19.10;40.10;;;;;;5073340;28;20245;-75
2023/04/14 01:03:30;;;;;;;2.63;1.27;;;19.10;40.10;;;;;;5073781;28;20222;-75
2023/04/14 01:05:57;;;;;;;4.70;1.33;;;19.10;40.20;;;;;;5073567;28;20190;-74
2023/04/14 01:08:26;;;;;;;7.10;2.00;;;19.10;40.20;;;;;;5073514;28;20183;-75
2023/04/14 01:11:04;;;;;;;4.65;1.33;;;19.10;40.20;;;;;;5073199;28;20201;-75
2023/04/14 01:13:39;;;;;;;4.82;1.50;;;19.10;40.30;;;;;;5073715;28;20233;-75
2023/04/14 01:16:16;;;;;;;3.90;1.48;;;19.10;40.30;;;;;;5071375;28;20222;-75
2023/04/14 01:18:53;;;;;;;5.35;1.40;;;19.10;40.30;;;;;;5072293;28;20233;-75
2023/04/14 01:21:25;;;;;;;4.18;1.55;;;19.10;40.40;;;;;;5073208;28;20250;-75
2023/04/14 01:24:09;;;;;;;4.93;1.40;;;19.10;40.40;;;;;;5073411;28;20190;-75
2023/04/14 01:26:37;;;;;;;5.55;1.60;;;19.10;40.50;;;;;;5072721;28;20234;-75
2023/04/14 01:29:42;;;;;;;5.78;1.52;;;19.10;40.50;;;;;;5073010;28;20230;-75
2023/04/14 01:32:14;;;;;;;5.28;1.42;;;19.10;40.60;;;;;;5073153;28;20245;-75
2023/04/14 01:34:50;;;;;;;4.38;1.70;;;19.10;40.60;;;;;;5072698;28;20222;-75
2023/04/14 01:37:28;;;;;;;4.65;1.65;;;19.00;40.50;;;;;;5072698;28;20262;-75
2023/04/14 01:39:59;;;;;;;3.45;1.63;;;19.00;40.50;;;;;;5071466;28;20187;-75
2023/04/14 01:42:31;;;;;;;5.32;1.52;;;19.10;40.60;;;;;;5072997;28;20246;-74
2023/04/14 01:45:03;;;;;;;7.45;1.25;;;19.10;40.60;;;;;;5072767;28;20222;-74
2023/04/14 01:47:32;;;;;;;3.08;1.42;;;19.10;40.60;;;;;;5072590;28;20242;-75
2023/04/14 01:50:01;;;;;;;5.95;1.80;;;19.00;40.50;;;;;;5072792;28;20218;-75
2023/04/14 01:52:31;;;;;;;5.20;1.80;;;19.00;40.50;;;;;;5071745;28;20243;-75
2023/04/14 01:55:04;;;;;;;5.85;1.38;;;19.00;40.60;;;;;;5072744;28;20186;-75
2023/04/14 01:57:35;;;;;;;3.97;1.33;;;19.00;40.50;;;;;;5072201;28;20262;-75
2023/04/14 02:00:04;;;;;;;5.40;1.90;;;19.10;40.60;;;;;;5072430;28;20219;-74
2023/04/14 02:02:36;;;;;;;5.75;1.60;;;19.00;40.50;;;;;;5072229;28;20593;-75
2023/04/14 02:05:05;;;;;;;3.05;1.30;;;19.00;40.50;;;;;;5071467;28;20201;-75
2023/04/14 02:07:34;;;;;;;6.63;1.48;;;19.00;40.50;;;;;;5072235;28;20715;-74
2023/04/14 02:10:03;;;;;;;6.10;1.70;;;19.00;40.50;;;;;;5072235;28;20222;-75
2023/04/14 02:12:31;;;;;;;3.67;1.30;;;19.00;40.50;;;;;;5071107;28;20229;-74
2023/04/14 02:15:00;;;;;;;5.32;1.45;;;19.00;40.60;;;;;;5072274;28;20186;-75
2023/04/14 02:17:28;;;;;;;3.95;1.52;;;19.00;40.50;;;;;;5071193;28;20333;-74
2023/04/14 02:20:00;;;;;;;7.75;1.92;;;19.00;40.50;;;;;;5074807;28;20242;-74
2023/04/14 02:22:27;;;;;;;4.85;1.40;;;19.00;40.50;;;;;;5090375;28;20265;-75
2023/04/14 02:24:55;;;;;;;5.30;1.55;;;19.00;40.50;;;;;;5087518;28;20648;-75
2023/04/14 02:27:33;;;;;;;7.25;1.60;;;19.00;40.50;;;;;;5072427;28;20250;-75
2023/04/14 02:30:08;;;;;;;3.22;1.60;;;19.00;40.50;;;;;;5071758;28;20652;-75
2023/04/14 02:32:36;;;;;;;4.32;1.73;;;19.00;40.60;;;;;;5072046;28;20218;-75
2023/04/14 02:35:12;;;;;;;4.45;1.60;;;18.90;40.50;;;;;;5070585;28;20244;-74
2023/04/14 02:37:43;;;;;;;6.63;1.60;;;19.00;40.60;;;;;;5080243;28;20264;-75
2023/04/14 02:40:15;;;;;;;4.85;1.52;;;19.00;40.60;;;;;;5092437;28;20218;-75
2023/04/14 02:42:46;;;;;;;5.30;1.60;;;18.90;40.50;;;;;;5092202;28;20217;-75
2023/04/14 02:45:22;;;;;;;5.32;1.90;;;18.90;40.60;;;;;;5092312;28;20247;-74
2023/04/14 02:47:55;;;;;;;5.40;1.65;;;18.90;40.60;;;;;;5092105;28;20248;-75
2023/04/14 02:50:27;;;;;;;4.28;1.45;;;18.90;40.60;;;;;;5091908;28;20193;-74
2023/04/14 02:52:55;;;;;;;5.40;1.50;;;18.90;40.50;;;;;;5092410;28;20253;-75
2023/04/14 02:55:24;;;;;;;5.10;1.42;;;18.90;40.70;;;;;;5092291;28;20186;-75
2023/04/14 02:57:53;;;;;;;4.70;1.70;;;18.90;40.70;;;;;;5090545;28;20233;-74
2023/04/14 03:00:21;;;;;;;6.10;1.67;;;18.90;40.70;;;;;;5092207;28;20217;-75
2023/04/14 03:02:49;;;;;;;6.57;1.63;;;18.90;40.80;;;;;;5091826;28;20213;-75
2023/04/14 03:05:16;;;;;;;5.20;1.70;;;18.90;40.80;;;;;;5092123;28;20212;-74
2023/04/14 03:07:47;;;;;;;8.40;1.77;;;18.90;40.80;;;;;;5092187;28;20245;-75
2023/04/14 03:10:15;;;;;;;5.25;1.67;;;18.90;40.80;;;;;;5092133;28;20229;-75
2023/04/14 03:12:44;;;;;;;3.75;1.42;;;18.90;40.80;;;;;;5090981;28;20214;-75
2023/04/14 03:15:11;;;;;;;5.15;1.60;;;18.90;40.80;;;;;;5073830;28;20205;-74
2023/04/14 03:17:40;;;;;;;6.55;1.90;;;18.90;40.80;;;;;;5071385;28;20265;-75
2023/04/14 03:20:08;;;;;;;5.82;1.80;;;18.90;40.80;;;;;;5071457;28;20723;-74
2023/04/14 03:22:39;;;;;;;4.38;1.73;;;18.90;40.90;;;;;;5066727;28;20247;-75
2023/04/14 03:25:11;;;;;;;4.35;1.33;;;18.90;40.90;;;;;;5071517;28;20195;-75
2023/04/14 03:27:40;;;;;;;7.07;1.80;;;18.80;40.80;;;;;;5071457;28;20225;-75
2023/04/14 03:30:10;;;;;;;7.40;1.60;;;18.90;40.90;;;;;;5071878;28;20230;-75
2023/04/14 03:32:42;;;;;;;5.78;1.52;;;18.90;40.90;;;;;;5071388;28;20237;-75
2023/04/14 03:35:11;;;;;;;5.35;1.88;;;18.90;40.90;;;;;;5071486;28;20193;-74
2023/04/14 03:37:41;;;;;;;6.00;1.50;;;18.80;40.80;;;;;;5071140;28;20773;-75
2023/04/14 03:40:14;;;;;;;4.10;1.60;;;18.90;40.90;;;;;;5072048;28;20191;-75
2023/04/14 03:42:43;;;;;;;6.70;1.75;;;18.90;40.90;;;;;;5075379;28;20280;-75
2023/04/14 03:45:11;;;;;;;4.32;1.70;;;18.80;40.90;;;;;;5074029;28;20236;-75
2023/04/14 03:47:38;;;;;;;5.15;1.50;;;18.90;41.00;;;;;;5075007;28;20272;-74
2023/04/14 03:50:09;;;;;;;6.22;1.55;;;18.90;41.00;;;;;;5073964;28;20248;-74
2023/04/14 03:52:38;;;;;;;4.75;1.38;;;18.80;40.90;;;;;;5074634;28;20719;-75
2023/04/14 03:55:07;;;;;;;4.10;1.17;;;18.80;40.90;;;;;;5073896;28;20738;-75
2023/04/14 03:57:37;;;;;;;5.85;1.63;;;18.80;41.00;;;;;;5074616;28;20262;-75
2023/04/14 04:00:07;;;;;;;2.58;1.48;;;18.80;40.90;;;;;;5056074;28;20234;-75
2023/04/14 04:02:36;;;;;;;5.15;1.58;;;18.80;40.90;;;;;;5074400;28;20234;-75
2023/04/14 04:05:06;;;;;;;6.18;1.70;;;18.80;41.00;;;;;;5074795;28;20187;-75
2023/04/14 04:07:34;;;;;;;4.50;1.90;;;18.80;41.00;;;;;;5075278;28;20238;-75
2023/04/14 04:10:03;;;;;;;7.70;1.95;;;18.80;41.00;;;;;;5074756;28;20210;-74
2023/04/14 04:12:32;;;;;;;3.75;1.50;;;18.80;41.00;;;;;;5055779;28;20695;-74
2023/04/14 04:15:01;;;;;;;4.50;1.50;;;18.80;41.10;;;;;;5074586;28;20557;-75
2023/04/14 04:17:31;;;;;;;5.32;1.58;;;18.80;41.00;;;;;;5074160;28;20727;-75
2023/04/14 04:20:00;;;;;;;4.50;1.35;;;18.80;41.10;;;;;;5074501;28;20237;-75
2023/04/14 04:22:30;;;;;;;5.22;1.63;;;18.80;41.10;;;;;;5073066;28;20650;-74
2023/04/14 04:24:58;;;;;;;4.90;1.75;;;18.80;41.10;;;;;;5074247;28;20206;-74
2023/04/14 04:27:26;;;;;;;4.88;1.83;;;18.80;41.20;;;;;;5074323;28;20280;-74
2023/04/14 04:29:54;;;;;;;2.72;1.45;;;18.80;41.10;;;;;;5074611;28;20195;-74
2023/04/14 04:32:23;;;;;;;5.50;1.58;;;18.80;41.10;;;;;;5073075;28;20211;-74
2023/04/14 04:34:51;;;;;;;4.45;1.77;;;18.80;41.10;;;;;;5074431;28;20194;-74
2023/04/14 04:37:20;;;;;;;3.90;1.50;;;18.80;41.20;;;;;;5073758;28;20715;-75
2023/04/14 04:39:47;;;;;;;6.53;1.95;;;18.80;41.20;;;;;;5074063;28;20565;-75
2023/04/14 04:42:15;;;;;;;7.97;2.05;;;18.80;41.10;;;;;;5074050;28;20219;-74
2023/04/14 04:44:42;;;;;;;3.10;1.33;;;18.80;41.10;;;;;;5074033;28;20214;-75
2023/04/14 04:47:10;;;;;;;5.53;1.63;;;18.70;41.10;;;;;;5074059;28;20251;-75
2023/04/14 04:49:38;;;;;;;6.18;1.77;;;18.80;41.20;;;;;;5072797;28;20198;-74
2023/04/14 04:52:06;;;;;;;4.82;1.35;;;18.80;41.10;;;;;;5073756;28;20245;-75
2023/04/14 04:54:33;;;;;;;5.05;1.50;;;18.80;41.10;;;;;;5073570;28;20664;-74
2023/04/14 04:57:00;;;;;;;4.55;1.40;;;18.80;41.10;;;;;;5073706;28;20257;-75
2023/04/14 04:59:27;;;;;;;3.20;1.50;;;18.90;41.20;;;;;;5073671;28;20214;-74
2023/04/14 05:01:54;;;;;;;3.63;1.30;;;18.90;41.10;;;;;;5073597;28;20608;-75
2023/04/14 05:04:21;;;;;;;4.70;1.42;;;18.90;41.10;;;;;;5072483;28;20230;-74
2023/04/14 05:06:50;;;;;;;6.07;1.88;;;18.90;41.10;;;;;;5073554;28;20219;-74
2023/04/14 05:09:17;;;;;;;4.15;1.65;;;18.90;41.10;;;;;;5073456;28;20191;-74
2023/04/14 05:11:45;;;;;;;2.78;1.23;;;19.00;41.10;;;;;;5073380;28;20244;-75
2023/04/14 05:14:13;;;;;;;5.15;1.67;;;19.00;41.10;;;;;;5073017;28;20240;-75
2023/04/14 05:16:40;;;;;;;4.53;1.42;;;19.00;41.10;;;;;;5073340;28;20214;-75
2023/04/14 05:19:07;;;;;;;5.50;1.55;;;19.00;41.10;;;;;;5071770;28;20652;-74
2023/04/14 05:21:34;;;;;;;4.75;1.60;;;19.00;41.00;;;;;;5073395;28;20223;-75
2023/04/14 05:24:03;;;;;;;5.03;1.50;;;19.10;41.10;;;;;;5073309;28;20274;-75
2023/04/14 05:26:30;;;;;;;3.72;1.50;;;19.10;41.10;;;;;;5072889;28;20270;-75
2023/04/14 05:28:57;;;;;;;4.45;1.90;;;19.10;41.10;;;;;;5072809;28;20283;-75
2023/04/14 05:31:24;;;;;;;4.07;1.65;;;19.10;41.00;;;;;;5072814;28;20668;-74
2023/04/14 05:33:51;;;;;;;4.47;1.50;;;19.10;41.00;;;;;;5073004;28;20211;-74
2023/04/14 05:36:19;;;;;;;6.25;1.80;;;19.20;41.10;;;;;;5072769;28;20234;-74
2023/04/14 05:38:46;;;;;;;5.70;1.83;;;19.10;40.90;;;;;;5072854;28;20261;-74
2023/04/14 05:41:15;;;;;;;3.03;1.42;;;19.20;41.70;;;;;;5073111;28;20218;-75
2023/04/14 05:43:42;;;;;;;5.82;1.80;;;19.20;41.10;;;;;;5072538;28;20219;-75
2023/04/14 05:46:09;;;;;;;2.65;1.52;;;19.20;41.00;;;;;;5072825;28;20244;-75
2023/04/14 05:48:37;;;;;;;3.70;1.65;;;19.30;41.10;;;;;;5072586;28;20261;-75
2023/04/14 05:51:04;;;;;;;4.97;1.73;;;19.30;41.10;;;;;;5072592;28;20197;-75
2023/04/14 05:53:31;;;;;;;2.83;1.48;;;19.30;41.10;;;;;;5072892;28;20215;-74
2023/04/14 05:55:58;;;;;;;6.32;1.75;;;19.30;41.10;;;;;;5072699;28;20260;-75
2023/04/14 05:58:27;;;;;;;4.50;1.50;;;19.30;41.00;;;;;;5072603;28;20277;-75
2023/04/14 06:00:54;;;;;;;4.00;1.60;;;19.30;41.00;;;;;;5072242;28;20226;-75
2023/04/14 06:03:22;;;;;;;2.95;1.35;;;19.30;40.90;;;;;;5072209;28;20249;-74
2023/04/14 06:05:49;;;;;;;4.25;1.70;;;19.30;40.90;;;;;;5072584;28;20214;-74
2023/04/14 06:08:16;;;;;;;5.50;1.30;;;19.40;41.00;;;;;;5072383;28;20301;-74
2023/04/14 06:10:43;;;;;;;4.05;1.50;;;19.40;41.00;;;;;;5072544;28;20222;-74
2023/04/14 06:13:11;;;;;;;5.40;1.83;;;19.40;41.00;;;;;;5036960;28;20218;-75
2023/04/14 06:15:40;;;;;;;5.13;1.70;;;19.40;40.90;;;;;;5074277;28;20194;-75
2023/04/14 06:18:07;;;;;;;4.72;1.80;;;19.40;41.00;;;;;;5089188;28;20256;-75
2023/04/14 06:20:35;;;;;;;4.57;1.50;;;19.40;41.00;;;;;;5092516;28;20218;-75
2023/04/14 06:23:03;;;;;;;3.13;1.42;;;19.50;41.20;;;;;;5076832;28;20221;-76
2023/04/14 06:25:30;;;;;;;3.97;1.85;;;19.50;41.20;;;;;;5089898;28;20759;-75
2023/04/14 06:27:57;;;;;;;5.55;1.65;;;19.50;41.20;;;;;;5092234;28;20296;-75
2023/04/14 06:30:27;;;;;;;4.10;1.48;;;19.50;41.20;;;;;;5091938;28;20275;-75
2023/04/14 06:32:56;;;;;;;2.47;1.20;;;19.60;41.20;;;;;;5090749;28;20296;-75
2023/04/14 06:35:23;;;;;;;2.40;1.15;;;19.60;41.20;;;;;;5091770;28;20236;-75
2023/04/14 06:37:50;;;;;;;5.35;1.42;;;19.60;41.20;;;;;;5091729;28;20229;-76
2023/04/14 06:40:18;;;;;;;3.55;1.20;;;19.70;41.50;;;;;;5091727;28;20202;-75
2023/04/14 06:42:45;;;;;;;2.90;1.58;;;19.70;41.60;;;;;;5089321;28;20715;-74
2023/04/14 06:45:12;;;;;;;4.15;1.33;;;19.80;41.50;;;;;;5074564;28;20252;-74
2023/04/14 06:47:39;;;;;;;3.47;1.20;;;19.80;41.50;;;;;;5070991;28;20230;-75
2023/04/14 06:50:09;;;;;;;4.22;1.20;;;19.80;41.50;;;;;;5071128;28;20286;-75
2023/04/14 06:52:36;;;;;;;4.22;1.50;;;19.80;41.40;;;;;;5077240;28;20245;-74
2023/04/14 06:55:03;;;;;;;4.28;1.48;;;19.90;41.40;;;;;;5070593;28;20231;-74
2023/04/14 06:57:31;;;;;;;2.80;1.08;;;19.90;41.40;;;;;;5070090;28;20245;-76
2023/04/14 06:59:58;;;;;;;3.03;1.15;;;19.90;41.30;;;;;;5089954;28;20973;-75
2023/04/14 07:02:27;;;;;;;3.42;1.38;;;19.90;41.30;;;;;;5090748;28;20267;-75
2023/04/14 07:04:54;;;;;;;8.45;1.67;;;19.90;41.30;;;;;;5087488;28;20250;-76
2023/04/14 07:07:24;;;;;;;3.03;1.48;;;20.00;41.70;;;;;;5106273;28;20202;-75
2023/04/14 07:09:51;;;;;;;3.22;1.50;;;20.00;41.80;;;;;;5089981;28;20243;-76
2023/04/14 07:12:18;;;;;;;6.32;1.40;;;20.00;41.60;;;;;;5072332;28;20205;-75
2023/04/14 07:14:50;;;;;;;2.08;1.00;;;20.00;41.70;;;;;;5074647;28;20268;-75
2023/04/14 07:17:18;;;;;;;2.22;1.23;;;20.10;41.70;;;;;;5082884;28;20202;-75
2023/04/14 07:19:45;;;;;;;3.67;1.40;;;20.10;41.70;;;;;;5094437;28;20182;-75
2023/04/14 07:22:12;;;;;;;4.47;1.30;;;20.10;41.70;;;;;;5094709;28;20226;-76
2023/04/14 07:24:45;;;;;;;5.53;1.42;;;20.10;41.80;;;;;;5099583;28;20216;-75
2023/04/14 07:27:13;;;;;;;5.57;1.65;;;20.10;41.80;;;;;;5097729;28;20234;-76
2023/04/14 07:29:41;;;;;;;6.43;1.08;;;20.10;41.70;;;;;;5092296;28;20203;-73
2023/04/14 07:32:08;;;;;;;5.22;1.20;;;20.10;41.80;;;;;;5108168;28;20197;-76
2023/04/14 07:34:36;;;;;;;5.18;1.20;;;20.20;41.70;;;;;;5104093;28;20246;-75
2023/04/14 07:37:03;;;;;;;2.25;1.15;;;20.20;41.60;;;;;;5091938;28;20588;-74
2023/04/14 07:39:30;;;;;;;5.47;1.40;;;20.20;41.60;;;;;;5093338;28;20284;-74
2023/04/14 07:42:00;;;;;;;4.07;1.27;;;20.10;41.50;;;;;;5091802;28;20233;-75
2023/04/14 07:44:27;;;;;;;3.03;1.25;;;20.10;41.50;;;;;;5094069;28;20655;-74
2023/04/14 07:46:55;;;;;;;3.42;1.20;;;20.20;41.50;;;;;;5091043;28;20201;-74
2023/04/14 07:49:24;;;;;;;3.72;1.30;;;20.20;41.60;;;;;;5095056;28;20241;-73
2023/04/14 07:51:51;;;;;;;2.88;0.90;;;20.20;41.60;;;;;;5089688;28;20289;-73
2023/04/14 07:54:26;;;;;;;2.88;1.00;;;20.20;41.50;;;;;;5093453;28;20934;-74
2023/04/14 07:56:54;;;;;;;3.65;1.52;;;20.20;41.50;;;;;;5093230;28;20229;-74
2023/04/14 07:59:23;;;;;;;2.47;1.13;;;20.20;41.50;;;;;;5090602;28;20239;-76
2023/04/14 08:01:50;;;;;;;2.80;1.10;;;20.20;41.50;;;;;;5097447;28;20233;-72
2023/04/14 08:04:17;;;;;;;3.55;1.15;;;20.30;41.60;;;;;;5090319;28;20290;-74
2023/04/14 08:06:45;;;;;;;1.58;1.10;;;20.30;41.60;;;;;;5109176;28;20297;-73
2023/04/14 08:09:13;;;;;;;2.22;1.13;;;20.30;41.60;;;;;;5097869;28;20222;-73
2023/04/14 08:11:40;;;;;;;3.30;1.27;;;20.30;41.60;;;;;;5075623;28;20683;-74
2023/04/14 08:14:08;;;;;;;6.90;1.52;;;20.30;41.60;;;;;;5072482;28;20242;-73
2023/04/14 08:16:37;;;;;;;3.95;1.63;;;20.30;41.60;;;;;;5087373;28;20204;-74
2023/04/14 08:19:05;;;;;;;3.08;1.40;;;20.30;41.60;;;;;;5093376;28;20261;-75
2023/04/14 08:21:32;;;;;;;14.15;1.67;;;20.40;41.70;;;;;;5093425;28;20220;-75
2023/04/14 08:23:59;;;;;;;2.25;1.10;;;20.40;41.70;;;;;;5092475;28;20249;-74
2023/04/14 08:26:26;;;;;;;3.42;1.50;;;20.40;41.70;;;;;;5092870;28;20261;-75
2023/04/14 08:28:53;;;;;;;2.50;1.40;;;20.40;41.70;;;;;;5092819;28;20210;-76
2023/04/14 08:31:23;;;;;;;8.52;1.50;;;20.40;41.70;;;;;;5094525;28;20285;-74
2023/04/14 08:33:52;;;;;;;2.17;1.02;;;20.40;41.70;;;;;;5113743;28;20245;-74
2023/04/14 08:36:20;;;;;;;3.53;1.30;;;20.40;41.70;;;;;;5113529;28;20192;-75
2023/04/14 08:38:47;;;;;;;4.78;1.98;;;20.50;41.80;;;;;;5112923;28;20710;-76
2023/04/14 08:41:15;;;;;;;2.50;1.20;;;20.40;41.70;;;;;;5113186;28;20662;-76
2023/04/14 08:43:43;;;;;;;1.88;1.10;;;20.50;41.80;;;;;;5113583;28;20217;-75
2023/04/14 08:46:11;;;;;;;2.78;1.55;;;20.50;41.80;;;;;;5098869;28;20190;-76
2023/04/14 08:48:39;;;;;;;1.77;1.02;;;20.50;41.80;;;;;;5093076;28;20213;-74
2023/04/14 08:51:18;;;;;;;2.33;1.17;;;20.50;41.70;;;;;;5090565;28;20225;-76
2023/04/14 08:53:48;;;;;;;4.95;1.17;;;20.50;41.80;;;;;;5111846;28;20264;-75
2023/04/14 08:56:18;;;;;;;3.97;1.10;;;20.50;41.80;;;;;;5092869;28;20234;-75
2023/04/14 08:58:47;;;;;;;1.70;1.00;;;20.50;41.70;;;;;;5100555;28;20256;-76
2023/04/14 09:01:14;;;;;;;4.10;1.10;;;20.50;41.70;;;;;;5112462;28;20185;-76
2023/04/14 09:03:41;;;;;;;7.60;1.33;;;20.60;41.80;;;;;;5111131;28;20209;-75
2023/04/14 09:06:10;;;;;;;3.30;0.95;;;20.60;41.80;;;;;;5098941;28;20733;-74
2023/04/14 09:08:38;;;;;;;5.22;1.17;;;20.60;41.80;;;;;;5106823;28;20223;-74
2023/04/14 09:11:06;;;;;;;5.22;0.95;;;20.70;41.90;;;;;;5089213;28;20201;-73
2023/04/14 09:13:34;;;;;;;5.60;1.10;;;20.70;42.00;;;;;;5088422;28;20305;-74
2023/04/14 09:16:02;;;;;;;1.70;0.90;;;20.70;42.00;;;;;;5070247;28;20318;-72
2023/04/14 09:18:30;;;;;;;3.13;1.52;;;20.70;42.00;;;;;;5102061;28;20272;-74
2023/04/14 09:20:58;;;;;;;4.95;1.10;;;20.70;42.00;;;;;;5093371;28;20276;-74
2023/04/14 09:23:27;;;;;;;4.78;1.30;;;20.70;42.00;;;;;;5111319;28;20680;-73
2023/04/14 09:25:55;;;;;;;3.80;0.80;;;20.70;42.00;;;;;;5101602;28;20228;-72
2023/04/14 09:28:22;;;;;;;4.65;0.90;;;20.70;42.00;;;;;;5112495;28;20252;-73
2023/04/14 09:30:49;;;;;;;3.53;1.00;;;20.80;42.10;;;;;;5112406;28;20193;-73
2023/04/14 09:33:23;;;;;;;8.68;1.05;;;20.80;42.10;;;;;;5112129;28;20205;-73
2023/04/14 09:35:52;;;;;;;3.55;0.80;;;20.80;42.10;;;;;;5112011;28;20181;-73
2023/04/14 09:38:34;;;;;;;4.22;1.52;;;20.80;42.10;;;;;;5110306;28;20197;-73
2023/04/14 09:41:01;;;;;;;2.97;0.95;;;20.80;42.10;;;;;;5108517;28;20194;-74
2023/04/14 09:43:29;;;;;;;1.90;1.00;;;20.80;42.30;;;;;;5090723;28;20213;-74
2023/04/14 09:45:57;;;;;;;6.90;1.40;;;20.80;42.30;;;;;;5091577;28;20218;-73
2023/04/14 09:48:25;;;;;;;3.53;1.00;;;20.90;42.20;;;;;;5091993;28;20268;-74
2023/04/14 09:51:00;;;;;;;8.68;1.33;;;20.90;42.30;;;;;;5090195;28;20187;-74
2023/04/14 09:53:28;;;;;;;5.90;1.08;;;20.90;42.20;;;;;;5091792;28;20240;-73
2023/04/14 09:55:58;;;;;;;2.85;1.25;;;20.90;42.10;;;;;;5099401;28;20284;-73
2023/04/14 09:58:30;;;;;;;14.38;1.55;;;20.90;42.10;;;;;;5111775;28;20193;-73
2023/04/14 10:00:58;;;;;;;4.80;1.05;;;20.90;42.20;;;;;;5094067;28;20301;-74
2023/04/14 10:03:43;;;;;;;8.80;1.13;;;20.90;42.40;;;;;;5107772;27;20669;-73
2023/04/14 10:06:15;;;;;;;11.68;1.40;;;20.90;42.50;;;;;;5079583;28;20262;-72
2023/04/14 10:08:45;;;;;;;17.35;1.23;;;20.90;42.40;;;;;;5090832;28;20217;-73
2023/04/14 10:11:28;;;;;;;5.65;0.93;;;20.90;42.40;;;;;;5095667;28;20357;-73
2023/04/14 10:13:56;;;;;;;8.02;1.02;;;21.00;42.50;;;;;;5080349;28;20250;-73
2023/04/14 10:16:25;;;;;;;6.53;1.10;;;20.90;42.30;;;;;;5106062;28;20247;-73
2023/04/14 10:18:53;;;;;;;11.52;1.00;;;21.00;42.40;;;;;;5094145;28;20237;-73
2023/04/14 10:21:21;;;;;;;5.80;1.23;;;20.90;42.20;;;;;;5089744;28;20760;-72
2023/04/14 10:23:49;;;;;;;6.60;1.00;;;20.90;42.20;;;;;;5090579;28;20225;-73
2023/04/14 10:26:18;;;;;;;4.57;0.95;;;20.90;42.10;;;;;;5090288;28;20265;-73
2023/04/14 10:28:47;;;;;;;7.80;1.27;;;20.90;42.10;;;;;;5089202;28;20683;-73
2023/04/14 10:31:18;;;;;;;4.00;0.98;;;20.90;42.20;;;;;;5092137;28;20251;-72
2023/04/14 10:33:47;;;;;;;5.47;1.02;;;20.90;42.20;;;;;;5110129;28;20220;-73
2023/04/14 10:36:24;;;;;;;9.70;0.95;;;21.00;42.30;;;;;;5110696;28;20185;-73
2023/04/14 10:38:59;;;;;;;6.25;1.00;;;20.90;42.10;;;;;;5110294;28;20711;-73
2023/04/14 10:41:36;;;;;;;8.88;0.90;;;21.00;42.20;;;;;;5110711;28;20715;-73
2023/04/14 10:44:04;;;;;;;7.00;0.85;;;20.90;42.10;;;;;;5110716;28;20299;-73
2023/04/14 10:46:43;;;;;;;2.65;0.98;;;21.00;42.30;;;;;;5091925;28;20231;-72
2023/04/14 10:49:12;;;;;;;3.22;1.20;;;21.00;42.20;;;;;;5090374;28;20218;-72
2023/04/14 10:51:40;;;;;;;3.63;1.73;;;21.00;42.20;;;;;;5073652;28;20214;-72
2023/04/14 10:54:15;;;;;;;6.38;1.10;;;21.00;42.20;;;;;;5076965;28;20218;-72
2023/04/14 10:57:08;;;;;;;2.28;0.80;;;21.00;42.20;;;;;;5075930;28;20281;-73
2023/04/14 10:59:35;;;;;;;5.75;0.88;;;21.00;42.20;;;;;;5073621;28;20237;-72
2023/04/14 11:02:02;;;;;;;3.17;0.75;;;21.00;42.20;;;;;;5074112;28;20226;-72
2023/04/14 11:04:29;;;;;;;6.75;0.95;;;21.00;42.20;;;;;;5084113;28;20699;-72
2023/04/14 11:06:57;;;;;;;4.18;0.82;;;21.00;42.20;;;;;;5114675;28;20262;-72
2023/04/14 11:09:36;;;;;;;3.30;0.93;;;21.00;42.20;;;;;;5114755;28;20249;-72
2023/04/14 11:12:21;;;;;;;8.60;0.80;;;21.00;42.20;;;;;;5114417;28;20189;-72
2023/04/14 11:14:49;;;;;;;1.77;0.90;;;21.00;42.20;;;;;;5084723;28;20226;-72
2023/04/14 11:17:21;;;;;;;2.65;0.73;;;21.00;42.30;;;;;;5081598;28;20182;-72
2023/04/14 11:19:52;;;;;;;2.38;0.85;;;21.00;42.30;;;;;;5093595;28;20865;-72
2023/04/14 11:22:38;;;;;;;2.25;0.93;;;21.00;42.30;;;;;;5094076;28;20213;-72
2023/04/14 11:25:06;;;;;;;2.05;0.90;;;21.00;42.30;;;;;;5094018;28;20233;-72
2023/04/14 11:27:35;;;;;;;1.40;0.90;;;21.00;42.30;;;;;;5110981;28;20250;-72
2023/04/14 11:30:02;;;;;;;3.88;0.80;;;21.00;42.40;;;;;;5114517;28;20576;-73
2023/04/14 11:32:30;;;;;;;3.50;0.98;;;21.00;42.40;;;;;;5114172;28;20246;-72
2023/04/14 11:35:08;;;;;;;1.13;0.80;;;21.00;42.40;;;;;;5113770;28;20560;-72
2023/04/14 11:37:36;;;;;;;2.10;0.70;;;21.00;42.40;;;;;;5114206;28;20676;-72
2023/04/14 11:40:05;;;;;;;3.03;0.80;;;21.00;42.40;;;;;;5113450;28;20247;-72
2023/04/14 11:42:33;;;;;;;1.73;0.90;;;21.00;42.50;;;;;;5113997;28;20661;-72
2023/04/14 11:45:03;;;;;;;0.60;0.60;;;21.00;42.50;;;;;;5108033;28;20213;-72
2023/04/14 11:47:30;;;;;;;6.35;0.90;;;21.00;42.50;;;;;;5092836;28;20198;-72
2023/04/14 11:50:01;;;;;;;3.10;0.90;;;21.00;42.50;;;;;;5092445;28;20218;-72
2023/04/14 11:52:28;;;;;;;1.92;0.70;;;21.00;42.50;;;;;;5076991;28;20704;-71
2023/04/14 11:54:55;;;;;;;3.58;0.98;;;21.00;42.40;;;;;;5073279;28;20247;-71
2023/04/14 11:57:22;;;;;;;2.35;0.88;;;21.10;42.50;;;;;;5082038;28;20278;-72
2023/04/14 11:59:50;;;;;;;4.53;0.93;;;21.00;42.60;;;;;;5081813;28;20318;-71
2023/04/14 12:02:21;;;;;;;3.72;1.23;;;21.00;42.90;;;;;;5076414;28;20191;-71
2023/04/14 12:04:50;;;;;;;5.13;1.05;;;21.10;43.10;;;;;;5092173;28;20700;-72
2023/04/14 12:07:19;;;;;;;4.00;1.20;;;21.10;43.30;;;;;;5081025;28;20226;-71
2023/04/14 12:09:49;;;;;;;3.00;1.05;;;21.10;43.40;;;;;;5087216;28;20230;-72
2023/04/14 12:12:18;;;;;;;3.88;1.40;;;21.10;43.80;;;;;;5085679;28;20237;-73
2023/04/14 12:14:48;;;;;;;7.32;1.00;;;21.20;44.00;;;;;;5076669;28;20328;-71
2023/04/14 12:17:19;;;;;;;4.95;0.90;;;21.20;44.40;;;;;;5088490;28;20198;-72
2023/04/14 12:19:47;;;;;;;5.10;1.00;;;21.20;43.90;;;;;;5094007;28;20233;-71
2023/04/14 12:22:22;;;;;;;2.53;1.00;;;21.20;44.20;;;;;;5081294;28;20540;-71
2023/04/14 12:24:49;;;;;;;2.10;0.88;;;21.30;44.00;;;;;;5091493;28;20309;-69
2023/04/14 12:27:19;;;;;;;1.35;0.60;;;21.30;43.70;;;;;;5098725;28;20201;-69
2023/04/14 12:29:48;;;;;;;2.53;0.70;;;21.30;43.60;;;;;;5101405;28;20274;-71
2023/04/14 12:32:31;;;;;;;1.30;0.75;;;21.30;43.70;;;;;;5088091;28;20267;-71
2023/04/14 12:35:00;;;;;;;3.60;0.90;;;21.30;43.80;;;;;;5078263;28;20262;-69
2023/04/14 12:37:28;;;;;;;1.20;0.73;;;21.40;44.10;;;;;;5075715;28;20782;-70
2023/04/14 12:39:58;;;;;;;1.92;0.88;;;21.40;43.80;;;;;;5075760;28;20264;-71
2023/04/14 12:42:47;;;;;;;1.85;0.85;;;21.40;43.80;;;;;;5077984;28;20197;-72
2023/04/14 12:45:20;;;;;;;3.17;1.10;;;21.40;43.90;;;;;;5085868;28;20217;-70
2023/04/14 12:47:53;;;;;;;3.75;0.98;;;21.50;44.10;;;;;;5089586;28;20194;-71
2023/04/14 12:50:38;;;;;;;1.75;0.80;;;21.50;44.10;;;;;;5080618;28;20275;-69
2023/04/14 12:53:31;;;;;;;1.45;1.10;;;21.50;44.00;;;;;;5087201;28;20679;-71
2023/04/14 12:56:09;;;;;;;3.13;0.95;;;21.50;44.10;;;;;;5084351;28;20308;-72
2023/04/14 12:58:39;;;;;;;2.67;0.95;;;21.50;44.00;;;;;;5052660;28;20293;-69